Kasif Kalkavan — V7IX7 — position and weather

sailwx.info

Track history (hours):
 
Tides and Currents Weather Stations Pressure Air Temp Water Temp Dewpoint Dewpoint Depression Visibility Wind Speed Wind Dir Waves Ship Positions

Kasif Kalkavan

Last reported at 2015-May-28 16:13 UTC. Time now 2015-May-30 00:29 UTC.
Position N 40°56' E 028°54'.

Type: Cargo ship. MMSI: 538090190.

Date/timePositionNaut miles runAvg speedWind from/ knotsBaromVisibWave heightAir tempDewpointWater temp
2015-May-28 16:13N 40°56' E 028°54'2211.1
2015-May-28 14:15N 41°15' E 029°08'  
2015-May-24 17:14N 46°08' E 031°04'1516.2
2015-May-24 16:17N 46°21' E 030°52'1113.1
2015-May-24 15:26N 46°30' E 030°44'88 5.8
2015-May-24 00:15N 45°24' E 032°06'11116.4
2015-May-23 17:29N 44°18' E 034°12'1617.7
2015-May-23 16:34N 44°18' E 034°35'1817.6
2015-May-23 15:33N 44°17' E 034°60'2217.9
2015-May-23 14:19N 44°16' E 035°30'1917.7
2015-May-23 13:14N 44°14' E 035°57'1417.6
2015-May-23 12:25N 44°13' E 036°17'6617.0
2015-May-23 08:32N 44°34' E 037°45'1010.1
2015-May-23 07:34N 44°43' E 037°49'0 0.1
2015-May-23 06:31N 44°43' E 037°49'0 0.0
2015-May-23 05:32N 44°43' E 037°49'0 0.0
2015-May-23 04:31N 44°43' E 037°49'0 0.0
2015-May-23 03:28N 44°43' E 037°49'0 0.0
2015-May-23 02:31N 44°43' E 037°49'0 0.0
2015-May-23 01:32N 44°43' E 037°49'0 0.0
2015-May-23 00:33N 44°43' E 037°49'0 0.0
2015-May-22 23:33N 44°43' E 037°49'0 0.0
2015-May-22 22:33N 44°43' E 037°49'0 0.0
2015-May-22 21:33N 44°43' E 037°49'0 0.0
2015-May-22 20:24N 44°43' E 037°49'0 0.0
2015-May-22 19:31N 44°43' E 037°49'0 0.0
2015-May-22 18:31N 44°43' E 037°49'0 0.0
2015-May-22 17:31N 44°43' E 037°49'0 0.0
2015-May-22 16:34N 44°43' E 037°49'0 0.0
2015-May-22 15:26N 44°43' E 037°49'5 1.5
2015-May-22 12:11N 44°39' E 037°51'6 9.0
2015-May-22 11:33N 44°33' E 037°51'1615.7
2015-May-22 10:31N 44°22' E 037°34'5 3.3
2015-May-22 09:08N 44°18' E 037°32'1 2.0
2015-May-22 08:26N 44°18' E 037°34'2 1.7
2015-May-22 07:20N 44°19' E 037°36'0 0.2
2015-May-22 06:28N 44°19' E 037°36'0 0.2
2015-May-22 05:28N 44°19' E 037°37'14 0.9
2015-May-21 13:26N 44°13' E 037°54'5 0.9
2015-May-21 07:31N 44°14' E 037°47'1 1.2
2015-May-21 06:25N 44°12' E 037°46'2 0.6
2015-May-21 02:29N 44°12' E 037°49'5 0.5
2015-May-20 16:28N 44°16' E 037°52'0 0.1
2015-May-20 15:29N 44°16' E 037°52'1 0.6
2015-May-20 13:26N 44°16' E 037°50'1 0.4
2015-May-20 12:10N 44°15' E 037°50'2 0.5
2015-May-20 08:25N 44°15' E 037°53'0 0.1
2015-May-20 07:33N 44°15' E 037°53'0 0.3
2015-May-20 06:30N 44°15' E 037°53'0 0.3
2015-May-20 05:23N 44°16' E 037°53'5 5.9
2015-May-20 04:28N 44°21' E 037°53'7 7.8
2015-May-20 03:33N 44°28' E 037°50'6 0.6
2015-May-19 17:07N 44°22' E 037°51'1 2.2
2015-May-19 16:33N 44°23' E 037°51'1 0.7
2015-May-19 15:33N 44°24' E 037°51'1 1.1
2015-May-19 14:33N 44°25' E 037°51'0 0.0
2015-May-19 13:33N 44°25' E 037°51'1 1.2
2015-May-19 12:33N 44°26' E 037°51'0 0.0
2015-May-19 11:33N 44°26' E 037°51'1 1.0
2015-May-19 10:33N 44°27' E 037°50'0 0.1
2015-May-19 09:33N 44°27' E 037°50'0 0.2
2015-May-19 08:33N 44°27' E 037°50'0 0.2
2015-May-19 07:33N 44°27' E 037°50'0 0.1
2015-May-19 06:33N 44°27' E 037°49'0 0.1
2015-May-19 05:32N 44°27' E 037°49'1 1.0
2015-May-19 04:32N 44°26' E 037°49'0 0.1
2015-May-19 03:29N 44°26' E 037°49'0 0.0
2015-May-19 02:29N 44°26' E 037°49'0 0.1
2015-May-19 01:25N 44°26' E 037°49'0 0.4
2015-May-19 00:33N 44°26' E 037°48'1413.8
2015-May-18 23:33N 44°24' E 037°29'1615.8
2015-May-18 22:33N 44°14' E 037°13'1616.3
2015-May-18 21:33N 43°58' E 037°08'1716.5
2015-May-18 20:33N 43°42' E 037°04'1716.7
2015-May-18 19:34N 43°25' E 036°59'1716.9
2015-May-18 18:34N 43°09' E 036°55'1716.7
2015-May-18 17:34N 42°53' E 036°50'1916.9
2015-May-18 16:28N 42°34' E 036°44'  
Track history (hours):
 
Tides and Currents Weather Stations Pressure Air Temp Water Temp Dewpoint Dewpoint Depression Visibility Wind Speed Wind Dir Waves Ship Positions

Kasif Kalkavan

Last reported at 2015-May-28 16:13 UTC. Time now 2015-May-30 00:29 UTC.
Position N 40°56' E 028°54'.

Type: Cargo ship. MMSI: 538090190.

Date/timePositionNaut miles runAvg speedWind from/ knotsBaromVisibWave heightAir tempDewpointWater temp
2015-May-28 16:13N 40°56' E 028°54'2211.1
2015-May-28 14:15N 41°15' E 029°08'  
2015-May-24 17:14N 46°08' E 031°04'1516.2
2015-May-24 16:17N 46°21' E 030°52'1113.1
2015-May-24 15:26N 46°30' E 030°44'88 5.8
2015-May-24 00:15N 45°24' E 032°06'11116.4
2015-May-23 17:29N 44°18' E 034°12'1617.7
2015-May-23 16:34N 44°18' E 034°35'1817.6
2015-May-23 15:33N 44°17' E 034°60'2217.9
2015-May-23 14:19N 44°16' E 035°30'1917.7
2015-May-23 13:14N 44°14' E 035°57'1417.6
2015-May-23 12:25N 44°13' E 036°17'6617.0
2015-May-23 08:32N 44°34' E 037°45'1010.1
2015-May-23 07:34N 44°43' E 037°49'0 0.1
2015-May-23 06:31N 44°43' E 037°49'0 0.0
2015-May-23 05:32N 44°43' E 037°49'0 0.0
2015-May-23 04:31N 44°43' E 037°49'0 0.0
2015-May-23 03:28N 44°43' E 037°49'0 0.0
2015-May-23 02:31N 44°43' E 037°49'0 0.0
2015-May-23 01:32N 44°43' E 037°49'0 0.0
2015-May-23 00:33N 44°43' E 037°49'0 0.0
2015-May-22 23:33N 44°43' E 037°49'0 0.0
2015-May-22 22:33N 44°43' E 037°49'0 0.0
2015-May-22 21:33N 44°43' E 037°49'0 0.0
2015-May-22 20:24N 44°43' E 037°49'0 0.0
2015-May-22 19:31N 44°43' E 037°49'0 0.0
2015-May-22 18:31N 44°43' E 037°49'0 0.0
2015-May-22 17:31N 44°43' E 037°49'0 0.0
2015-May-22 16:34N 44°43' E 037°49'0 0.0
2015-May-22 15:26N 44°43' E 037°49'5 1.5
2015-May-22 12:11N 44°39' E 037°51'6 9.0
2015-May-22 11:33N 44°33' E 037°51'1615.7
2015-May-22 10:31N 44°22' E 037°34'5 3.3
2015-May-22 09:08N 44°18' E 037°32'1 2.0
2015-May-22 08:26N 44°18' E 037°34'2 1.7
2015-May-22 07:20N 44°19' E 037°36'0 0.2
2015-May-22 06:28N 44°19' E 037°36'0 0.2
2015-May-22 05:28N 44°19' E 037°37'14 0.9
2015-May-21 13:26N 44°13' E 037°54'5 0.9
2015-May-21 07:31N 44°14' E 037°47'1 1.2
2015-May-21 06:25N 44°12' E 037°46'2 0.6
2015-May-21 02:29N 44°12' E 037°49'5 0.5
2015-May-20 16:28N 44°16' E 037°52'0 0.1
2015-May-20 15:29N 44°16' E 037°52'1 0.6
2015-May-20 13:26N 44°16' E 037°50'1 0.4
2015-May-20 12:10N 44°15' E 037°50'2 0.5
2015-May-20 08:25N 44°15' E 037°53'0 0.1
2015-May-20 07:33N 44°15' E 037°53'0 0.3
2015-May-20 06:30N 44°15' E 037°53'0 0.3
2015-May-20 05:23N 44°16' E 037°53'5 5.9
2015-May-20 04:28N 44°21' E 037°53'7 7.8
2015-May-20 03:33N 44°28' E 037°50'6 0.6
2015-May-19 17:07N 44°22' E 037°51'1 2.2
2015-May-19 16:33N 44°23' E 037°51'1 0.7
2015-May-19 15:33N 44°24' E 037°51'1 1.1
2015-May-19 14:33N 44°25' E 037°51'0 0.0
2015-May-19 13:33N 44°25' E 037°51'1 1.2
2015-May-19 12:33N 44°26' E 037°51'0 0.0
2015-May-19 11:33N 44°26' E 037°51'1 1.0
2015-May-19 10:33N 44°27' E 037°50'0 0.1
2015-May-19 09:33N 44°27' E 037°50'0 0.2
2015-May-19 08:33N 44°27' E 037°50'0 0.2
2015-May-19 07:33N 44°27' E 037°50'0 0.1
2015-May-19 06:33N 44°27' E 037°49'0 0.1
2015-May-19 05:32N 44°27' E 037°49'1 1.0
2015-May-19 04:32N 44°26' E 037°49'0 0.1
2015-May-19 03:29N 44°26' E 037°49'0 0.0
2015-May-19 02:29N 44°26' E 037°49'0 0.1
2015-May-19 01:25N 44°26' E 037°49'0 0.4
2015-May-19 00:33N 44°26' E 037°48'1413.8
2015-May-18 23:33N 44°24' E 037°29'1615.8
2015-May-18 22:33N 44°14' E 037°13'1616.3
2015-May-18 21:33N 43°58' E 037°08'1716.5
2015-May-18 20:33N 43°42' E 037°04'1716.7
2015-May-18 19:34N 43°25' E 036°59'1716.9
2015-May-18 18:34N 43°09' E 036°55'1716.7
2015-May-18 17:34N 42°53' E 036°50'1916.9
2015-May-18 16:28N 42°34' E 036°44'  

Dump ship's entire track history